createdAt,value
2023-04-07T00:02:29.001Z,99789.72
2023-04-07T00:05:30.672Z,99781.63
2023-04-07T00:08:32.070Z,99783.28
2023-04-07T00:11:33.510Z,99790.00
2023-04-07T00:14:34.933Z,99779.69
2023-04-07T00:17:36.474Z,99776.44
2023-04-07T00:20:38.018Z,99784.06
2023-04-07T00:23:39.465Z,99773.13
2023-04-07T00:26:40.949Z,99767.78
2023-04-07T00:29:43.764Z,99767.19
2023-04-07T00:32:45.538Z,99769.91
2023-04-07T00:35:47.083Z,99759.25
2023-04-07T00:38:48.650Z,99755.88
2023-04-07T00:41:51.266Z,99754.41
2023-04-07T00:44:52.644Z,99748.25
2023-04-07T00:47:54.161Z,99749.81
2023-04-07T00:50:55.629Z,99747.25
2023-04-07T00:53:57.485Z,99746.16
2023-04-07T00:56:59.186Z,99750.34
2023-04-07T01:00:00.744Z,99751.50
2023-04-07T01:03:20.977Z,99744.38
2023-04-07T01:06:27.320Z,99745.78
2023-04-07T01:09:44.459Z,99738.66
2023-04-07T01:12:57.798Z,99734.19
2023-04-07T01:16:05.759Z,99726.94
2023-04-07T01:19:21.184Z,99720.13
2023-04-07T01:22:43.416Z,99712.91
2023-04-07T01:26:12.344Z,99715.19
2023-04-07T01:29:26.045Z,99715.47
2023-04-07T01:32:28.037Z,99714.94
2023-04-07T01:35:32.207Z,99706.94
2023-04-07T01:38:33.919Z,99710.34
2023-04-07T01:41:37.572Z,99710.88
2023-04-07T01:44:39.401Z,99716.03
2023-04-07T01:47:41.283Z,99717.22
2023-04-07T01:50:45.814Z,99721.59
2023-04-07T01:53:48.867Z,99715.50
2023-04-07T01:56:50.812Z,99706.81
2023-04-07T01:59:53.676Z,99703.63
2023-04-07T02:03:07.631Z,99702.63
2023-04-07T02:06:12.685Z,99702.38
2023-04-07T02:09:17.868Z,99685.41
2023-04-07T02:12:20.457Z,99683.97
2023-04-07T02:15:36.726Z,99676.50
2023-04-07T02:18:38.781Z,99675.41
2023-04-07T02:21:41.239Z,99666.94
2023-04-07T02:24:45.651Z,99664.72
2023-04-07T02:27:47.237Z,99663.88
2023-04-07T02:30:48.654Z,99671.38
2023-04-07T02:33:50.294Z,99677.47
2023-04-07T02:36:51.926Z,99676.09
2023-04-07T02:39:53.400Z,99664.63
2023-04-07T02:42:55.247Z,99656.31
2023-04-07T02:45:57.661Z,99648.88
2023-04-07T02:48:59.160Z,99644.00
2023-04-07T02:52:00.755Z,99642.44
2023-04-07T02:55:02.564Z,99635.16
2023-04-07T02:58:04.727Z,99628.13
2023-04-07T03:01:13.781Z,99631.44
2023-04-07T03:04:15.898Z,99634.97
2023-04-07T03:07:18.263Z,99638.59
2023-04-07T03:10:19.822Z,99644.50
2023-04-07T03:13:21.706Z,99640.53
2023-04-07T03:16:23.259Z,99644.03
2023-04-07T03:19:46.932Z,99649.16
2023-04-07T03:22:48.437Z,99649.25
2023-04-07T03:25:57.906Z,99639.41
2023-04-07T03:29:04.197Z,99656.16
2023-04-07T03:32:06.174Z,99659.38
2023-04-07T03:35:08.471Z,99645.88
2023-04-07T03:38:09.929Z,99647.38
2023-04-07T03:41:11.533Z,99653.19
2023-04-07T03:44:13.068Z,99645.47
2023-04-07T03:47:15.327Z,99645.22
2023-04-07T03:50:16.960Z,99649.31
2023-04-07T03:53:43.069Z,99644.31
2023-04-07T03:57:03.274Z,99642.97
2023-04-07T04:00:09.527Z,99639.00
2023-04-07T04:03:33.299Z,99637.75
2023-04-07T04:06:57.757Z,99634.22
2023-04-07T04:10:20.952Z,99639.56
2023-04-07T04:13:25.097Z,99633.78
2023-04-07T04:16:26.918Z,99630.50
2023-04-07T04:19:32.241Z,99633.34
2023-04-07T04:22:38.388Z,99630.28
2023-04-07T04:25:40.851Z,99617.41
2023-04-07T04:28:45.471Z,99635.03
2023-04-07T04:31:48.520Z,99628.44
2023-04-07T04:34:50.076Z,99624.88
2023-04-07T04:37:52.771Z,99624.47
2023-04-07T04:40:54.355Z,99632.03
2023-04-07T04:44:01.517Z,99624.59
2023-04-07T04:47:06.429Z,99633.09
2023-04-07T04:50:08.439Z,99625.94
2023-04-07T04:53:12.645Z,99627.59
2023-04-07T04:56:21.489Z,99622.53
2023-04-07T04:59:24.468Z,99624.47
2023-04-07T05:02:31.826Z,99625.44
2023-04-07T05:05:33.612Z,99624.59
2023-04-07T05:08:36.564Z,99624.31
2023-04-07T05:11:41.092Z,99622.81
2023-04-07T05:14:42.662Z,99621.97
2023-04-07T05:17:44.299Z,99624.38
2023-04-07T05:20:49.332Z,99622.72
2023-04-07T05:23:51.744Z,99620.59
2023-04-07T05:26:57.034Z,99614.25
2023-04-07T05:29:59.210Z,99618.25
2023-04-07T05:33:05.892Z,99614.31
2023-04-07T05:36:16.003Z,99621.34
2023-04-07T05:39:17.632Z,99629.44
2023-04-07T05:42:21.094Z,99623.66
2023-04-07T05:45:26.229Z,99623.78
2023-04-07T05:48:27.799Z,99622.72
2023-04-07T05:51:31.382Z,99630.44
2023-04-07T05:54:36.183Z,99619.66
2023-04-07T05:57:40.366Z,99629.56
2023-04-07T06:00:41.903Z,99627.59
2023-04-07T06:03:48.786Z,99622.88
2023-04-07T06:06:59.233Z,99624.75
2023-04-07T06:10:00.660Z,99627.94
2023-04-07T06:13:02.070Z,99625.44
2023-04-07T06:16:03.532Z,99628.81
2023-04-07T06:19:07.144Z,99634.22
2023-04-07T06:22:08.750Z,99628.94
2023-04-07T06:25:10.420Z,99627.66
2023-04-07T06:28:12.482Z,99627.53
2023-04-07T06:31:13.930Z,99634.84
2023-04-07T06:34:16.494Z,99639.53
2023-04-07T06:37:18.218Z,99633.34
2023-04-07T06:40:19.705Z,99642.47
2023-04-07T06:43:21.250Z,99639.63
2023-04-07T06:46:28.751Z,99642.06
2023-04-07T06:49:30.275Z,99647.34
2023-04-07T06:52:31.943Z,99651.34
2023-04-07T06:55:33.419Z,99659.22
2023-04-07T06:58:35.602Z,99653.00
2023-04-07T07:01:37.897Z,99649.09
2023-04-07T07:04:39.514Z,99655.03
2023-04-07T07:07:41.051Z,99650.50
2023-04-07T07:10:42.510Z,99656.72
2023-04-07T07:13:45.026Z,99655.31
2023-04-07T07:16:46.496Z,99653.59
2023-04-07T07:19:47.927Z,99655.00
2023-04-07T07:22:50.932Z,99660.63
2023-04-07T07:25:52.510Z,99665.22
2023-04-07T07:28:54.162Z,99664.47
2023-04-07T07:31:56.316Z,99665.41
2023-04-07T07:34:58.855Z,99667.88
2023-04-07T07:38:01.013Z,99666.25
2023-04-07T07:41:02.684Z,99674.00
2023-04-07T07:44:04.401Z,99666.31
2023-04-07T07:47:05.865Z,99677.28
2023-04-07T07:50:07.513Z,99677.19
2023-04-07T07:53:08.918Z,99679.78
2023-04-07T07:56:10.559Z,99682.53
2023-04-07T07:59:12.146Z,99682.69
2023-04-07T08:02:13.895Z,99688.13
2023-04-07T08:05:15.484Z,99697.09
2023-04-07T08:08:16.930Z,99701.44
2023-04-07T08:11:18.389Z,99692.16
2023-04-07T08:14:20.177Z,99703.47
2023-04-07T08:17:21.647Z,99704.03
2023-04-07T08:20:23.689Z,99708.38
2023-04-07T08:23:25.860Z,99710.56
2023-04-07T08:26:27.664Z,99712.94
2023-04-07T08:29:30.541Z,99710.94
2023-04-07T08:32:41.045Z,99719.66
2023-04-07T08:35:42.634Z,99719.06
2023-04-07T08:38:44.263Z,99726.69
2023-04-07T08:41:47.184Z,99723.50
2023-04-07T08:44:51.606Z,99716.38
2023-04-07T08:47:57.234Z,99722.34
2023-04-07T08:51:04.269Z,99723.81
2023-04-07T08:54:12.626Z,99721.59
2023-04-07T08:57:16.549Z,99727.56
2023-04-07T09:00:18.522Z,99725.56
2023-04-07T09:03:21.494Z,99724.81
2023-04-07T09:06:23.200Z,99726.66
2023-04-07T09:09:24.619Z,99731.47
2023-04-07T09:12:28.077Z,99729.84
2023-04-07T09:15:32.861Z,99737.56
2023-04-07T09:18:34.358Z,99740.81
2023-04-07T09:21:52.819Z,99739.94
2023-04-07T09:25:13.510Z,99735.50
2023-04-07T09:28:14.937Z,99738.59
2023-04-07T09:31:16.669Z,99742.56
2023-04-07T09:34:26.231Z,99745.06
2023-04-07T09:37:27.766Z,99742.22
2023-04-07T09:40:29.442Z,99750.94
2023-04-07T09:43:31.659Z,99741.06
2023-04-07T09:46:33.924Z,99740.00
2023-04-07T09:49:49.140Z,99750.53
2023-04-07T09:52:52.457Z,99756.19
2023-04-07T09:55:54.194Z,99755.38
2023-04-07T09:58:56.778Z,99748.25
2023-04-07T10:01:59.077Z,99749.06
2023-04-07T10:05:01.068Z,99752.66
2023-04-07T10:08:03.462Z,99754.06
2023-04-07T10:11:06.623Z,99754.09
2023-04-07T10:14:09.940Z,99755.28
2023-04-07T10:17:12.206Z,99762.47
2023-04-07T10:20:14.914Z,99757.13
2023-04-07T10:23:22.081Z,99762.06
2023-04-07T10:26:28.290Z,99763.34
2023-04-07T10:29:34.550Z,99764.84
2023-04-07T10:32:49.627Z,99761.22
2023-04-07T10:36:07.486Z,99764.28
2023-04-07T10:39:09.073Z,99769.69
2023-04-07T10:42:41.470Z,99765.66
2023-04-07T10:45:45.833Z,99771.56
2023-04-07T10:49:08.530Z,99766.88
2023-04-07T10:52:13.156Z,99773.81
2023-04-07T10:55:35.177Z,99775.22
2023-04-07T10:58:37.308Z,99773.78
2023-04-07T11:01:39.180Z,99771.50
2023-04-07T11:04:45.502Z,99775.59
2023-04-07T11:07:50.266Z,99771.41
2023-04-07T11:10:51.736Z,99779.63
2023-04-07T11:13:53.189Z,99779.84
2023-04-07T11:16:54.852Z,99775.75
2023-04-07T11:19:57.509Z,99771.91
2023-04-07T11:23:00.224Z,99781.19
2023-04-07T11:26:02.947Z,99782.19
2023-04-07T11:29:04.624Z,99783.06
2023-04-07T11:32:06.275Z,99788.22
2023-04-07T11:35:08.352Z,99793.13
2023-04-07T11:38:10.311Z,99797.97
2023-04-07T11:41:13.647Z,99795.81
2023-04-07T11:44:15.425Z,99792.16
2023-04-07T11:47:16.992Z,99796.09
2023-04-07T11:50:38.844Z,99786.44
2023-04-07T11:53:41.014Z,99793.94
2023-04-07T11:56:44.572Z,99786.91
2023-04-07T11:59:46.006Z,99794.03
2023-04-07T12:02:47.743Z,99788.84
2023-04-07T12:05:49.493Z,99788.44
2023-04-07T12:08:50.960Z,99790.78
2023-04-07T12:11:52.474Z,99790.06
2023-04-07T12:14:54.571Z,99789.13
2023-04-07T12:17:56.119Z,99783.47
2023-04-07T12:20:58.993Z,99785.81
2023-04-07T12:24:00.476Z,99786.50
2023-04-07T12:27:02.988Z,99790.47
2023-04-07T12:30:04.787Z,99790.66
2023-04-07T12:33:06.319Z,99794.09
2023-04-07T12:36:07.924Z,99791.44
2023-04-07T12:39:09.634Z,99789.66
2023-04-07T12:42:11.951Z,99786.13
2023-04-07T12:45:13.503Z,99788.56
2023-04-07T12:48:16.221Z,99792.84
2023-04-07T12:51:17.837Z,99781.88
2023-04-07T12:54:19.448Z,99791.88
2023-04-07T12:57:20.991Z,99793.41
2023-04-07T13:00:22.612Z,99790.16
2023-04-07T13:03:24.218Z,99784.06
2023-04-07T13:06:25.887Z,99780.03
2023-04-07T13:09:27.410Z,99775.94
2023-04-07T13:12:28.868Z,99777.78
2023-04-07T13:15:30.417Z,99783.69
2023-04-07T13:18:31.850Z,99783.69
2023-04-07T13:24:37.657Z,99786.44
2023-04-07T13:27:39.068Z,99775.75
2023-04-07T13:30:41.536Z,99779.91
2023-04-07T13:33:43.108Z,99771.13
2023-04-07T13:36:44.528Z,99774.50
2023-04-07T13:39:46.183Z,99776.63
2023-04-07T13:42:47.557Z,99766.94
2023-04-07T13:45:49.254Z,99775.22
2023-04-07T13:48:51.032Z,99759.09
2023-04-07T13:51:52.541Z,99760.06
2023-04-07T13:54:54.198Z,99771.25
2023-04-07T13:57:55.631Z,99762.13
2023-04-07T14:00:57.272Z,99759.03
2023-04-07T14:04:00.854Z,99763.84
2023-04-07T14:07:03.523Z,99760.69
2023-04-07T14:10:05.093Z,99764.00
2023-04-07T14:13:06.906Z,99756.56
2023-04-07T14:16:08.409Z,99745.88
2023-04-07T14:19:09.935Z,99756.41
2023-04-07T14:22:11.389Z,99754.44
2023-04-07T14:25:12.810Z,99746.25
2023-04-07T14:28:14.316Z,99755.09
2023-04-07T14:31:16.292Z,99753.16
2023-04-07T14:34:17.780Z,99757.06
2023-04-07T14:37:24.039Z,99754.09
2023-04-07T14:40:26.003Z,99758.72
2023-04-07T14:43:27.796Z,99758.44
2023-04-07T14:46:29.306Z,99755.41
2023-04-07T14:49:30.771Z,99754.63
2023-04-07T14:52:32.383Z,99747.56
2023-04-07T14:55:34.360Z,99743.44
2023-04-07T14:58:37.380Z,99751.81
2023-04-07T15:01:39.817Z,99751.81
2023-04-07T15:04:41.471Z,99751.41
2023-04-07T15:07:48.452Z,99752.81
2023-04-07T15:10:49.923Z,99752.81
2023-04-07T15:13:51.626Z,99755.09
2023-04-07T15:16:53.250Z,99765.97
2023-04-07T15:19:54.924Z,99763.94
2023-04-07T15:22:56.860Z,99763.91
2023-04-07T15:25:58.311Z,99765.50
2023-04-07T15:29:04.813Z,99767.38
2023-04-07T15:32:06.436Z,99768.72
2023-04-07T15:35:08.297Z,99762.13
2023-04-07T15:38:10.057Z,99772.22
2023-04-07T15:41:16.244Z,99769.78
2023-04-07T15:44:21.062Z,99775.94
2023-04-07T15:47:22.568Z,99775.72
2023-04-07T15:50:24.939Z,99787.25
2023-04-07T15:53:26.456Z,99788.59
2023-04-07T15:56:27.956Z,99787.22
2023-04-07T15:59:30.934Z,99789.94
2023-04-07T16:02:32.679Z,99790.50
2023-04-07T16:05:34.311Z,99800.00
2023-04-07T16:08:35.729Z,99799.66
2023-04-07T16:11:37.133Z,99813.16
2023-04-07T16:14:38.619Z,99812.38
2023-04-07T16:17:43.044Z,99806.22
2023-04-07T16:20:44.506Z,99812.56
2023-04-07T16:23:46.271Z,99818.50
2023-04-07T16:26:50.384Z,99821.66
2023-04-07T16:29:51.857Z,99829.25
2023-04-07T16:32:53.352Z,99835.69
2023-04-07T16:35:54.999Z,99835.38
2023-04-07T16:38:57.586Z,99839.53
2023-04-07T16:41:59.025Z,99843.06
2023-04-07T16:45:01.367Z,99840.81
2023-04-07T16:48:02.887Z,99843.91
2023-04-07T16:51:04.503Z,99839.69
2023-04-07T16:54:05.981Z,99843.38
2023-04-07T16:57:07.537Z,99851.38
2023-04-07T17:00:09.603Z,99856.84
2023-04-07T17:03:11.109Z,99849.84
2023-04-07T17:06:12.688Z,99859.19
2023-04-07T17:09:17.569Z,99860.75
2023-04-07T17:12:19.033Z,99864.28
2023-04-07T17:15:20.701Z,99872.06
2023-04-07T17:18:22.133Z,99872.66
2023-04-07T17:21:23.656Z,99870.34
2023-04-07T17:24:25.068Z,99883.66
2023-04-07T17:27:26.750Z,99883.88
2023-04-07T17:30:28.308Z,99886.22
2023-04-07T17:33:30.694Z,99893.88
2023-04-07T17:36:33.141Z,99900.44
2023-04-07T17:39:34.559Z,99899.00
2023-04-07T17:42:37.156Z,99900.81
2023-04-07T17:45:38.611Z,99902.91
2023-04-07T17:48:40.046Z,99909.22
2023-04-07T17:51:42.459Z,99920.88
2023-04-07T17:54:43.936Z,99919.41
2023-04-07T17:57:45.698Z,99932.13
2023-04-07T18:00:47.373Z,99930.75
2023-04-07T18:03:49.674Z,99938.72
2023-04-07T18:06:51.567Z,99929.94
2023-04-07T18:09:53.162Z,99936.75
2023-04-07T18:12:54.953Z,99946.53
2023-04-07T18:15:56.408Z,99953.28
2023-04-07T18:18:57.958Z,99963.97
2023-04-07T18:22:00.763Z,99958.56
2023-04-07T18:25:02.305Z,99967.09
2023-04-07T18:28:04.012Z,99972.34
2023-04-07T18:31:07.670Z,99978.16
2023-04-07T18:34:10.430Z,99990.75
2023-04-07T18:37:11.908Z,99994.72
2023-04-07T18:40:13.516Z,100000.34
2023-04-07T18:43:16.902Z,99996.13
2023-04-07T18:46:18.794Z,100005.56
2023-04-07T18:49:20.376Z,100007.00
2023-04-07T18:52:21.939Z,100016.28
2023-04-07T18:55:23.324Z,100012.50
2023-04-07T18:58:24.792Z,100012.72
2023-04-07T19:01:27.144Z,100021.25
2023-04-07T19:04:28.683Z,100022.09
2023-04-07T19:07:30.364Z,100034.03
2023-04-07T19:10:31.768Z,100028.09
2023-04-07T19:13:33.191Z,100035.09
2023-04-07T19:16:34.995Z,100043.53
2023-04-07T19:19:36.451Z,100041.19
2023-04-07T19:22:37.861Z,100040.78
2023-04-07T19:25:40.197Z,100050.97
2023-04-07T19:28:41.726Z,100045.00
2023-04-07T19:31:43.722Z,100044.97
2023-04-07T19:34:45.308Z,100048.28
2023-04-07T19:37:48.136Z,100050.75
2023-04-07T19:40:49.809Z,100055.28
2023-04-07T19:43:51.773Z,100060.69
2023-04-07T19:46:53.431Z,100061.97
2023-04-07T19:49:54.851Z,100072.00
2023-04-07T19:52:56.334Z,100072.59
2023-04-07T19:55:57.797Z,100072.28
2023-04-07T19:58:59.350Z,100080.88
2023-04-07T20:02:00.957Z,100088.97
2023-04-07T20:05:03.344Z,100086.59
2023-04-07T20:08:04.718Z,100079.59
2023-04-07T20:11:11.055Z,100080.84
2023-04-07T20:14:12.487Z,100079.47
2023-04-07T20:17:13.891Z,100091.31
2023-04-07T20:20:15.650Z,100085.13
2023-04-07T20:23:21.960Z,100086.22
2023-04-07T20:26:23.462Z,100096.56
2023-04-07T20:29:25.115Z,100092.69
2023-04-07T20:32:27.007Z,100098.22
2023-04-07T20:35:28.551Z,100101.38
2023-04-07T20:38:30.275Z,100105.38
2023-04-07T20:41:31.876Z,100096.56
2023-04-07T20:44:33.367Z,100097.38
2023-04-07T20:47:36.687Z,100103.38
2023-04-07T20:50:38.389Z,100095.97
2023-04-07T20:53:40.612Z,100107.53
2023-04-07T20:56:44.482Z,100102.03
2023-04-07T20:59:46.002Z,100108.66
2023-04-07T21:02:48.507Z,100104.81
2023-04-07T21:05:50.309Z,100111.16
2023-04-07T21:08:51.831Z,100110.56
2023-04-07T21:11:53.656Z,100106.31
2023-04-07T21:14:55.206Z,100118.56
2023-04-07T21:17:56.640Z,100114.97
2023-04-07T21:20:59.503Z,100117.16
2023-04-07T21:24:01.244Z,100116.06
2023-04-07T21:27:02.847Z,100124.84
2023-04-07T21:30:06.338Z,100115.75
2023-04-07T21:33:07.827Z,100115.38
2023-04-07T21:36:09.253Z,100116.34
2023-04-07T21:39:10.706Z,100115.13
2023-04-07T21:42:12.485Z,100114.28
2023-04-07T21:45:14.941Z,100117.34
2023-04-07T21:48:20.644Z,100116.06
2023-04-07T21:51:22.492Z,100116.19
2023-04-07T21:54:24.992Z,100118.53
2023-04-07T21:57:26.479Z,100115.13
2023-04-07T22:00:27.896Z,100110.88
2023-04-07T22:03:29.632Z,100110.53
2023-04-07T22:06:31.364Z,100106.97
2023-04-07T22:09:32.818Z,100115.88
2023-04-07T22:12:34.264Z,100116.19
2023-04-07T22:15:35.724Z,100123.25
2023-04-07T22:18:37.154Z,100123.13
2023-04-07T22:21:38.614Z,100123.41
2023-04-07T22:24:40.225Z,100127.41
2023-04-07T22:27:41.653Z,100126.03
2023-04-07T22:30:43.119Z,100123.09
2023-04-07T22:33:44.510Z,100124.75
2023-04-07T22:36:46.248Z,100128.50
2023-04-07T22:39:47.676Z,100126.72
2023-04-07T22:42:49.087Z,100130.97
2023-04-07T22:45:51.154Z,100133.34
2023-04-07T22:48:52.613Z,100138.03
2023-04-07T22:51:55.217Z,100133.50
2023-04-07T22:54:57.796Z,100130.94
2023-04-07T22:57:59.312Z,100135.47
2023-04-07T23:01:01.346Z,100131.34
2023-04-07T23:04:02.780Z,100130.31
2023-04-07T23:07:04.205Z,100122.56
2023-04-07T23:10:07.614Z,100131.91
2023-04-07T23:13:09.108Z,100131.19
2023-04-07T23:16:14.280Z,100133.41
2023-04-07T23:19:15.868Z,100140.63
2023-04-07T23:22:17.341Z,100135.28
2023-04-07T23:25:18.754Z,100145.59
2023-04-07T23:28:20.409Z,100145.91
2023-04-07T23:31:21.972Z,100143.56
2023-04-07T23:34:23.410Z,100149.22
2023-04-07T23:37:24.830Z,100155.38
2023-04-07T23:40:26.666Z,100150.53
2023-04-07T23:43:28.097Z,100146.31
2023-04-07T23:46:29.562Z,100150.25
2023-04-07T23:49:31.310Z,100153.97
2023-04-07T23:52:32.733Z,100147.22
2023-04-07T23:55:34.185Z,100151.13
2023-04-07T23:58:35.637Z,100144.75
